createdAt,value
2023-04-18T00:00:31.220Z,96574.16
2023-04-18T00:02:59.187Z,96575.13
2023-04-18T00:05:27.972Z,96585.72
2023-04-18T00:07:55.253Z,96580.31
2023-04-18T00:10:22.549Z,96572.03
2023-04-18T00:12:49.446Z,96568.28
2023-04-18T00:15:16.402Z,96580.81
2023-04-18T00:17:43.610Z,96592.56
2023-04-18T00:20:11.334Z,96582.50
2023-04-18T00:22:42.641Z,96583.78
2023-04-18T00:25:11.154Z,96585.84
2023-04-18T00:27:39.146Z,96586.78
2023-04-18T00:30:06.881Z,96590.56
2023-04-18T00:32:39.457Z,96591.88
2023-04-18T00:35:06.795Z,96590.81
2023-04-18T00:37:34.093Z,96600.47
2023-04-18T00:40:01.062Z,96575.66
2023-04-18T00:42:29.477Z,96584.59
2023-04-18T00:44:56.413Z,96584.44
2023-04-18T00:47:23.541Z,96583.63
2023-04-18T00:49:50.625Z,96576.44
2023-04-18T00:52:18.851Z,96579.78
2023-04-18T00:54:47.363Z,96576.84
2023-04-18T00:57:14.636Z,96577.72
2023-04-18T00:59:42.412Z,96574.72
2023-04-18T01:02:09.411Z,96560.56
2023-04-18T01:04:37.361Z,96567.25
2023-04-18T01:07:04.831Z,96567.59
2023-04-18T01:09:31.834Z,96569.84
2023-04-18T01:11:58.772Z,96575.06
2023-04-18T01:14:25.828Z,96567.34
2023-04-18T01:16:53.285Z,96567.22
2023-04-18T01:19:20.173Z,96564.09
2023-04-18T01:21:47.347Z,96564.44
2023-04-18T01:24:16.171Z,96560.06
2023-04-18T01:26:47.767Z,96556.41
2023-04-18T01:29:15.337Z,96556.56
2023-04-18T01:31:42.322Z,96547.13
2023-04-18T01:34:09.598Z,96549.22
2023-04-18T01:36:39.070Z,96550.78
2023-04-18T01:39:07.147Z,96550.97
2023-04-18T01:41:34.167Z,96547.44
2023-04-18T01:44:01.679Z,96551.44
2023-04-18T01:46:29.083Z,96538.59
2023-04-18T01:48:57.273Z,96546.53
2023-04-18T01:51:24.234Z,96544.44
2023-04-18T01:53:54.313Z,96537.00
2023-04-18T01:56:21.313Z,96545.38
2023-04-18T01:58:48.284Z,96541.13
2023-04-18T02:01:15.413Z,96553.00
2023-04-18T02:03:42.542Z,96528.47
2023-04-18T02:06:10.173Z,96557.53
2023-04-18T02:08:37.178Z,96541.25
2023-04-18T02:11:06.661Z,96554.94
2023-04-18T02:13:33.698Z,96564.16
2023-04-18T02:16:00.916Z,96553.69
2023-04-18T02:18:47.781Z,96558.63
2023-04-18T02:21:14.607Z,96556.75
2023-04-18T02:23:41.601Z,96563.03
2023-04-18T02:26:08.542Z,96571.09
2023-04-18T02:28:38.964Z,96566.22
2023-04-18T02:31:06.431Z,96558.56
2023-04-18T02:33:35.001Z,96572.78
2023-04-18T02:36:01.953Z,96560.72
2023-04-18T02:38:28.896Z,96568.91
2023-04-18T02:40:56.139Z,96566.91
2023-04-18T02:43:23.231Z,96560.09
2023-04-18T02:45:50.717Z,96564.50
2023-04-18T02:48:17.807Z,96573.91
2023-04-18T02:50:46.059Z,96578.25
2023-04-18T02:53:13.440Z,96578.88
2023-04-18T02:55:52.308Z,96572.19
2023-04-18T02:58:21.225Z,96578.25
2023-04-18T03:01:06.858Z,96577.03
2023-04-18T03:04:03.311Z,96584.47
2023-04-18T03:06:40.285Z,96581.59
2023-04-18T03:09:07.276Z,96578.47
2023-04-18T03:11:37.338Z,96578.78
2023-04-18T03:14:05.241Z,96586.44
2023-04-18T03:16:48.966Z,96585.03
2023-04-18T03:19:21.596Z,96589.28
2023-04-18T03:21:49.879Z,96583.75
2023-04-18T03:24:17.300Z,96593.72
2023-04-18T03:26:48.740Z,96587.38
2023-04-18T03:29:18.109Z,96593.72
2023-04-18T03:31:46.725Z,96597.78
2023-04-18T03:34:13.878Z,96594.00
2023-04-18T03:36:41.290Z,96596.59
2023-04-18T03:39:08.966Z,96590.50
2023-04-18T03:41:35.970Z,96525.72
2023-04-18T03:44:03.998Z,96586.44
2023-04-18T03:46:35.157Z,96589.81
2023-04-18T03:49:03.271Z,96600.69
2023-04-18T03:51:41.724Z,96588.94
2023-04-18T03:54:08.822Z,96599.47
2023-04-18T03:56:36.115Z,96594.66
2023-04-18T03:59:03.133Z,96592.56
2023-04-18T04:01:30.791Z,96590.47
2023-04-18T04:03:57.858Z,96592.91
2023-04-18T04:06:26.172Z,96600.88
2023-04-18T04:08:53.365Z,96593.09
2023-04-18T04:11:24.348Z,96598.56
2023-04-18T04:13:51.723Z,96598.28
2023-04-18T04:16:23.117Z,96594.00
2023-04-18T04:18:52.429Z,96596.16
2023-04-18T04:21:24.081Z,96597.53
2023-04-18T04:23:53.178Z,96602.03
2023-04-18T04:26:35.696Z,96603.22
2023-04-18T04:29:13.906Z,96600.28
2023-04-18T04:31:42.648Z,96599.88
2023-04-18T04:34:09.606Z,96600.72
2023-04-18T04:36:36.732Z,96590.69
2023-04-18T04:39:06.693Z,96599.97
2023-04-18T04:41:47.228Z,96598.72
2023-04-18T04:44:17.734Z,96591.53
2023-04-18T04:46:44.977Z,96602.75
2023-04-18T04:49:18.889Z,96608.66
2023-04-18T04:51:45.815Z,96610.94
2023-04-18T04:54:13.138Z,96615.13
2023-04-18T04:56:40.955Z,96593.81
2023-04-18T04:59:07.990Z,96606.81
2023-04-18T05:01:39.635Z,96610.91
2023-04-18T05:04:06.826Z,96610.09
2023-04-18T05:06:34.012Z,96605.31
2023-04-18T05:09:01.213Z,96604.06
2023-04-18T05:11:28.386Z,96607.84
2023-04-18T05:13:55.476Z,96602.84
2023-04-18T05:16:22.659Z,96611.94
2023-04-18T05:18:49.643Z,96610.09
2023-04-18T05:21:16.676Z,96596.72
2023-04-18T05:23:43.613Z,96615.78
2023-04-18T05:26:10.698Z,96578.00
2023-04-18T05:28:37.738Z,96615.44
2023-04-18T05:31:04.780Z,96615.78
2023-04-18T05:33:31.895Z,96616.78
2023-04-18T05:35:59.213Z,96623.63
2023-04-18T05:38:26.359Z,96617.44
2023-04-18T05:40:56.043Z,96621.47
2023-04-18T05:43:23.548Z,96619.78
2023-04-18T05:45:52.516Z,96628.63
2023-04-18T05:48:19.801Z,96625.38
2023-04-18T05:50:46.895Z,96630.16
2023-04-18T05:53:13.879Z,96635.31
2023-04-18T05:55:41.008Z,96636.50
2023-04-18T05:58:08.097Z,96633.25
2023-04-18T06:00:35.229Z,96637.81
2023-04-18T06:03:02.835Z,96642.19
2023-04-18T06:05:30.623Z,96638.56
2023-04-18T06:07:57.923Z,96644.28
2023-04-18T06:10:24.917Z,96633.91
2023-04-18T06:12:51.971Z,96634.50
2023-04-18T06:15:19.129Z,96638.84
2023-04-18T06:17:46.267Z,96621.63
2023-04-18T06:20:13.593Z,96639.19
2023-04-18T06:26:37.822Z,96633.72
2023-04-18T06:29:04.773Z,96639.13
2023-04-18T06:31:31.775Z,96645.72
2023-04-18T06:33:58.833Z,96626.84
2023-04-18T06:36:27.579Z,96634.66
2023-04-18T06:38:54.702Z,96625.69
2023-04-18T06:41:21.633Z,96635.97
2023-04-18T06:44:02.224Z,96641.38
2023-04-18T06:46:31.394Z,96637.09
2023-04-18T06:48:58.755Z,96640.81
2023-04-18T06:51:25.910Z,96645.00
2023-04-18T06:53:53.758Z,96635.28
2023-04-18T06:56:21.429Z,96638.97
2023-04-18T06:58:48.959Z,96637.56
2023-04-18T07:01:16.154Z,96638.03
2023-04-18T07:03:43.277Z,96635.28
2023-04-18T07:06:11.113Z,96644.19
2023-04-18T07:08:38.596Z,96647.56
2023-04-18T07:11:06.655Z,96626.56
2023-04-18T07:13:33.689Z,96651.91
2023-04-18T07:16:01.591Z,96650.91
2023-04-18T07:18:37.433Z,96644.69
2023-04-18T07:21:09.127Z,96647.09
2023-04-18T07:23:36.668Z,96634.84
2023-04-18T07:26:05.785Z,96635.44
2023-04-18T07:28:33.258Z,96651.19
2023-04-18T07:31:01.302Z,96657.13
2023-04-18T07:33:31.770Z,96662.91
2023-04-18T07:36:01.748Z,96645.19
2023-04-18T07:38:31.470Z,96631.00
2023-04-18T07:41:02.179Z,96608.91
2023-04-18T07:43:29.405Z,96645.84
2023-04-18T07:45:56.538Z,96649.16
2023-04-18T07:48:25.293Z,96640.47
2023-04-18T07:50:53.404Z,96636.94
2023-04-18T07:53:30.173Z,96631.91
2023-04-18T07:56:08.586Z,96646.44
2023-04-18T07:58:36.250Z,96651.97
2023-04-18T08:01:03.369Z,96638.13
2023-04-18T08:03:30.569Z,96631.72
2023-04-18T08:05:57.696Z,96638.50
2023-04-18T08:08:24.638Z,96646.03
2023-04-18T08:10:51.609Z,96634.59
2023-04-18T08:13:18.679Z,96626.78
2023-04-18T08:15:46.616Z,96636.47
2023-04-18T08:18:13.658Z,96636.94
2023-04-18T08:20:41.032Z,96631.78
2023-04-18T08:23:11.299Z,96634.16
2023-04-18T08:25:39.987Z,96627.06
2023-04-18T08:28:07.271Z,96623.13
2023-04-18T08:30:34.524Z,96618.50
2023-04-18T08:33:01.662Z,96638.94
2023-04-18T08:35:28.918Z,96630.59
2023-04-18T08:38:14.773Z,96637.59
2023-04-18T08:40:43.574Z,96631.31
2023-04-18T08:43:14.127Z,96623.81
2023-04-18T08:45:45.843Z,96626.16
2023-04-18T08:48:14.168Z,96620.38
2023-04-18T08:50:42.706Z,96615.06
2023-04-18T08:53:10.600Z,96603.44
2023-04-18T08:55:37.759Z,96612.13
2023-04-18T08:58:06.931Z,96619.78
2023-04-18T09:00:34.313Z,96613.91
2023-04-18T09:03:03.019Z,96618.16
2023-04-18T09:05:30.305Z,96608.47
2023-04-18T09:07:57.531Z,96596.84
2023-04-18T09:10:28.714Z,96613.06
2023-04-18T09:12:57.840Z,96620.25
2023-04-18T09:15:29.481Z,96626.38
2023-04-18T09:17:59.271Z,96620.53
2023-04-18T09:20:41.553Z,96602.94
2023-04-18T09:23:11.517Z,96608.78
2023-04-18T09:25:44.438Z,96620.78
2023-04-18T09:28:33.469Z,96606.78
2023-04-18T09:31:04.459Z,96599.72
2023-04-18T09:33:37.193Z,96596.91
2023-04-18T09:36:19.308Z,96612.53
2023-04-18T09:38:48.406Z,96607.72
2023-04-18T09:41:19.944Z,96605.78
2023-04-18T09:43:49.302Z,96598.81
2023-04-18T09:46:17.900Z,96606.03
2023-04-18T09:48:45.107Z,96606.81
2023-04-18T09:51:15.749Z,96612.22
2023-04-18T09:53:44.998Z,96612.66
2023-04-18T09:56:24.560Z,96597.84
2023-04-18T09:58:57.231Z,96607.50
2023-04-18T10:01:28.504Z,96612.13
2023-04-18T10:03:57.348Z,96609.13
2023-04-18T10:06:27.418Z,96608.47
2023-04-18T10:08:55.142Z,96601.09
2023-04-18T10:11:24.296Z,96602.75
2023-04-18T10:13:56.000Z,96610.94
2023-04-18T10:16:23.871Z,96609.31
2023-04-18T10:18:51.581Z,96592.75
2023-04-18T10:21:18.472Z,96611.53
2023-04-18T10:23:48.877Z,96633.28
2023-04-18T10:26:16.416Z,96615.47
2023-04-18T10:28:57.934Z,96621.91
2023-04-18T10:31:27.225Z,96615.44
2023-04-18T10:36:30.266Z,96626.81
2023-04-18T10:39:05.127Z,96611.88
2023-04-18T10:41:33.842Z,96607.19
2023-04-18T10:44:11.497Z,96605.84
2023-04-18T10:46:52.075Z,96601.94
2023-04-18T10:49:20.165Z,96610.94
2023-04-18T10:51:49.722Z,96621.66
2023-04-18T10:54:22.621Z,96630.28
2023-04-18T10:56:56.967Z,96631.75
2023-04-18T10:59:26.713Z,96632.94
2023-04-18T11:01:57.431Z,96628.47
2023-04-18T11:04:25.810Z,96645.34
2023-04-18T11:06:58.493Z,96647.19
2023-04-18T11:09:25.751Z,96644.69
2023-04-18T11:12:07.156Z,96591.22
2023-04-18T11:14:45.634Z,96640.16
2023-04-18T11:17:20.970Z,96631.16
2023-04-18T11:19:48.666Z,96637.84
2023-04-18T11:22:17.043Z,96643.34
2023-04-18T11:24:44.798Z,96629.13
2023-04-18T11:27:12.763Z,96630.69
2023-04-18T11:29:39.756Z,96636.75
2023-04-18T11:32:08.323Z,96634.19
2023-04-18T11:34:38.407Z,96635.59
2023-04-18T11:37:08.679Z,96624.78
2023-04-18T11:39:41.190Z,96623.00
2023-04-18T11:42:08.985Z,96625.84
2023-04-18T11:44:39.720Z,96611.50
2023-04-18T11:47:23.692Z,96610.25
2023-04-18T11:50:01.012Z,96618.16
2023-04-18T11:52:34.059Z,96603.69
2023-04-18T11:55:25.007Z,96603.25
2023-04-18T11:58:00.394Z,96604.56
2023-04-18T12:00:31.783Z,96609.59
2023-04-18T12:03:00.004Z,96599.94
2023-04-18T12:05:29.394Z,96603.06
2023-04-18T12:08:05.106Z,96593.56
2023-04-18T12:10:32.472Z,96594.78
2023-04-18T12:13:00.172Z,96540.16
2023-04-18T12:15:29.273Z,96589.28
2023-04-18T12:18:01.570Z,96586.66
2023-04-18T12:20:52.622Z,96585.56
2023-04-18T12:23:37.287Z,96568.81
2023-04-18T12:26:14.580Z,96570.09
2023-04-18T12:28:45.703Z,96566.19
2023-04-18T12:31:13.057Z,96559.31
2023-04-18T12:33:40.276Z,96560.44
2023-04-18T12:36:11.197Z,96562.22
2023-04-18T12:38:38.162Z,96569.34
2023-04-18T12:41:05.660Z,96566.03
2023-04-18T12:43:32.641Z,96575.16
2023-04-18T12:46:00.058Z,96563.50
2023-04-18T12:48:27.167Z,96537.00
2023-04-18T12:50:54.336Z,96559.13
2023-04-18T12:53:21.361Z,96551.41
2023-04-18T12:55:48.278Z,96548.78
2023-04-18T12:58:18.575Z,96554.97
2023-04-18T13:00:45.989Z,96556.50
2023-04-18T13:03:13.595Z,96555.78
2023-04-18T13:05:41.156Z,96540.59
2023-04-18T13:08:17.016Z,96546.66
2023-04-18T13:10:48.047Z,96550.06
2023-04-18T13:13:15.088Z,96551.78
2023-04-18T13:15:42.580Z,96542.28
2023-04-18T13:18:09.634Z,96541.53
2023-04-18T13:20:36.763Z,96548.31
2023-04-18T13:23:03.952Z,96528.84
2023-04-18T13:25:31.388Z,96527.16
2023-04-18T13:27:58.644Z,96539.38
2023-04-18T13:30:26.060Z,96531.28
2023-04-18T13:32:53.137Z,96533.31
2023-04-18T13:35:20.282Z,96532.25
2023-04-18T13:37:47.362Z,96529.16
2023-04-18T13:46:36.663Z,96539.66
2023-04-18T13:49:03.677Z,96522.31
2023-04-18T13:51:31.137Z,96525.97
2023-04-18T13:54:00.280Z,96528.13
2023-04-18T13:56:28.215Z,96531.00
2023-04-18T13:58:55.749Z,96526.31
2023-04-18T14:01:22.812Z,96525.97
2023-04-18T14:03:50.182Z,96529.44
2023-04-18T14:06:17.494Z,96533.31
2023-04-18T14:08:44.476Z,96542.81
2023-04-18T14:11:11.452Z,96532.66
2023-04-18T14:13:38.608Z,96534.09
2023-04-18T14:16:06.736Z,96530.31
2023-04-18T14:18:33.780Z,96521.47
2023-04-18T14:21:01.170Z,96521.84
2023-04-18T14:23:28.153Z,96533.72
2023-04-18T14:25:55.652Z,96537.19
2023-04-18T14:28:24.958Z,96530.72
2023-04-18T14:30:52.210Z,96539.06
2023-04-18T14:33:19.309Z,96527.06
2023-04-18T14:35:46.272Z,96532.34
2023-04-18T14:38:13.315Z,96517.28
2023-04-18T14:40:40.303Z,96521.41
2023-04-18T14:43:07.374Z,96530.94
2023-04-18T14:45:34.494Z,96527.16
2023-04-18T14:48:01.653Z,96532.84
2023-04-18T14:50:28.745Z,96523.00
2023-04-18T14:52:55.826Z,96519.91
2023-04-18T14:55:22.804Z,96515.41
2023-04-18T14:57:49.884Z,96518.72
2023-04-18T15:00:17.172Z,96524.69
2023-04-18T15:02:44.454Z,96516.72
2023-04-18T15:05:12.620Z,96514.22
2023-04-18T15:07:40.726Z,96517.84
2023-04-18T15:10:08.525Z,96517.09
2023-04-18T15:12:35.998Z,96523.81
2023-04-18T15:15:03.216Z,96524.28
2023-04-18T15:17:31.414Z,96524.41
2023-04-18T15:20:01.472Z,96521.00
2023-04-18T15:22:29.135Z,96521.38
2023-04-18T15:24:59.681Z,96521.94
2023-04-18T15:27:27.794Z,96507.97
2023-04-18T15:29:58.146Z,96517.00
2023-04-18T15:32:26.694Z,96516.50
2023-04-18T15:34:53.881Z,96520.97
2023-04-18T15:41:03.262Z,96514.91
2023-04-18T15:43:30.672Z,96529.03
2023-04-18T15:45:58.026Z,96518.59
2023-04-18T15:48:25.288Z,96513.66
2023-04-18T15:50:52.387Z,96521.28
2023-04-18T15:53:19.714Z,96520.78
2023-04-18T15:55:46.987Z,96514.69
2023-04-18T15:58:14.026Z,96518.44
2023-04-18T16:00:41.058Z,96465.75
2023-04-18T16:03:10.480Z,96516.94
2023-04-18T16:05:37.539Z,96525.06
2023-04-18T16:08:04.653Z,96525.69
2023-04-18T16:10:31.734Z,96525.06
2023-04-18T16:12:59.512Z,96526.22
2023-04-18T16:15:26.566Z,96526.56
2023-04-18T16:17:53.786Z,96531.94
2023-04-18T16:20:20.880Z,96543.00
2023-04-18T16:22:48.228Z,96541.78
2023-04-18T16:25:15.216Z,96545.28
2023-04-18T16:27:43.499Z,96548.31
2023-04-18T16:30:11.157Z,96551.97
2023-04-18T16:32:38.596Z,96551.91
2023-04-18T16:35:07.929Z,96556.31
2023-04-18T16:37:34.877Z,96538.19
2023-04-18T16:40:05.168Z,96536.09
2023-04-18T16:42:32.510Z,96541.50
2023-04-18T16:45:01.887Z,96549.56
2023-04-18T16:47:32.473Z,96561.47
2023-04-18T16:49:59.569Z,96557.41
2023-04-18T16:52:27.158Z,96551.75
2023-04-18T16:54:54.526Z,96558.13
2023-04-18T16:57:21.406Z,96549.72
2023-04-18T16:59:48.402Z,96562.00
2023-04-18T17:02:15.704Z,96557.97
2023-04-18T17:04:44.355Z,96564.69
2023-04-18T17:07:11.557Z,96579.41
2023-04-18T17:09:38.483Z,96574.75
2023-04-18T17:12:05.964Z,96579.97
2023-04-18T17:14:33.203Z,96589.31
2023-04-18T17:17:00.196Z,96597.06
2023-04-18T17:19:27.153Z,96599.56
2023-04-18T17:21:54.130Z,96616.03
2023-04-18T17:24:22.679Z,96609.88
2023-04-18T17:26:49.973Z,96612.41
2023-04-18T17:29:18.687Z,96618.81
2023-04-18T17:31:45.640Z,96617.97
2023-04-18T17:34:12.803Z,96629.03
2023-04-18T17:36:39.870Z,96626.75
2023-04-18T17:39:06.994Z,96622.72
2023-04-18T17:41:38.593Z,96631.31
2023-04-18T17:44:07.979Z,96643.53
2023-04-18T17:46:35.248Z,96655.66
2023-04-18T17:49:02.422Z,96638.69
2023-04-18T17:51:29.357Z,96648.91
2023-04-18T17:53:56.490Z,96655.03
2023-04-18T17:56:23.528Z,96651.41
2023-04-18T17:58:50.705Z,96658.25
2023-04-18T18:01:19.830Z,96665.06
2023-04-18T18:03:47.387Z,96647.88
2023-04-18T18:06:15.567Z,96660.69
2023-04-18T18:08:43.180Z,96657.44
2023-04-18T18:11:10.786Z,96610.09
2023-04-18T18:13:41.289Z,96652.31
2023-04-18T18:16:08.974Z,96659.66
2023-04-18T18:18:36.893Z,96667.88
2023-04-18T18:21:03.979Z,96680.84
2023-04-18T18:23:31.238Z,96686.50
2023-04-18T18:25:58.498Z,96685.28
2023-04-18T18:28:25.561Z,96678.63
2023-04-18T18:30:53.529Z,96686.69
2023-04-18T18:33:20.687Z,96690.97
2023-04-18T18:35:47.657Z,96682.41
2023-04-18T18:38:14.633Z,96688.00
2023-04-18T18:40:41.706Z,96685.75
2023-04-18T18:43:08.677Z,96670.75
2023-04-18T18:45:35.695Z,96669.06
2023-04-18T18:48:03.979Z,96674.44
2023-04-18T18:50:31.256Z,96674.09
2023-04-18T18:52:58.280Z,96672.59
2023-04-18T18:55:25.293Z,96672.03
2023-04-18T18:57:52.372Z,96652.88
2023-04-18T19:00:19.469Z,96655.19
2023-04-18T19:02:46.908Z,96656.22
2023-04-18T19:05:14.120Z,96652.44
2023-04-18T19:07:43.920Z,96653.84
2023-04-18T19:10:11.194Z,96667.19
2023-04-18T19:12:38.553Z,96667.03
2023-04-18T19:15:06.492Z,96668.50
2023-04-18T19:17:35.839Z,96642.84
2023-04-18T19:20:03.827Z,96657.81
2023-04-18T19:22:38.685Z,96637.84
2023-04-18T19:25:06.695Z,96632.94
2023-04-18T19:27:33.998Z,96656.88
2023-04-18T19:30:00.952Z,96646.19
2023-04-18T19:32:28.216Z,96654.00
2023-04-18T19:34:55.226Z,96646.56
2023-04-18T19:37:22.247Z,96648.44
2023-04-18T19:39:49.573Z,96641.56
2023-04-18T19:42:16.953Z,96611.88
2023-04-18T19:44:44.356Z,96634.81
2023-04-18T19:47:11.353Z,96634.50
2023-04-18T19:49:38.592Z,96633.97
2023-04-18T19:52:06.217Z,96629.88
2023-04-18T19:54:33.574Z,96632.09
2023-04-18T19:57:01.613Z,96630.88
2023-04-18T19:59:28.999Z,96625.41
2023-04-18T20:01:57.819Z,96624.88
2023-04-18T20:04:26.805Z,96623.94
2023-04-18T20:06:55.462Z,96625.97
2023-04-18T20:09:22.469Z,96629.88
2023-04-18T20:11:49.430Z,96624.31
2023-04-18T20:14:16.467Z,96620.31
2023-04-18T20:16:43.523Z,96632.19
2023-04-18T20:19:12.594Z,96632.94
2023-04-18T20:21:40.039Z,96621.53
2023-04-18T20:24:09.791Z,96628.28
2023-04-18T20:26:37.224Z,96619.00
2023-04-18T20:29:04.263Z,96633.75
2023-04-18T20:31:31.409Z,96619.13
2023-04-18T20:33:58.515Z,96621.72
2023-04-18T20:36:25.524Z,96618.75
2023-04-18T20:38:52.581Z,96617.63
2023-04-18T20:41:22.724Z,96618.38
2023-04-18T20:43:50.693Z,96616.34
2023-04-18T20:46:17.687Z,96605.75
2023-04-18T20:48:44.642Z,96625.78
2023-04-18T20:51:11.837Z,96617.84
2023-04-18T20:53:38.823Z,96613.44
2023-04-18T20:56:06.086Z,96616.78
2023-04-18T20:58:33.059Z,96620.13
2023-04-18T21:01:02.554Z,96623.72
2023-04-18T21:03:29.800Z,96617.41
2023-04-18T21:05:56.811Z,96611.59
2023-04-18T21:08:23.883Z,96611.13
2023-04-18T21:10:50.838Z,96618.00
2023-04-18T21:13:17.867Z,96606.28
2023-04-18T21:15:44.996Z,96602.59
2023-04-18T21:18:11.977Z,96590.38
2023-04-18T21:20:38.921Z,96601.47
2023-04-18T21:23:06.146Z,96596.91
2023-04-18T21:25:33.138Z,96596.56
2023-04-18T21:28:00.364Z,96595.16
2023-04-18T21:30:27.453Z,96595.72
2023-04-18T21:32:54.487Z,96594.81
2023-04-18T21:35:23.346Z,96602.78
2023-04-18T21:37:51.744Z,96606.84
2023-04-18T21:40:18.937Z,96611.50
2023-04-18T21:42:46.872Z,96607.50
2023-04-18T21:45:15.098Z,96606.97
2023-04-18T21:47:42.130Z,96613.91
2023-04-18T21:50:10.098Z,96610.38
2023-04-18T21:52:37.484Z,96613.72
2023-04-18T21:55:05.142Z,96614.94
2023-04-18T21:57:33.555Z,96618.53
2023-04-18T22:00:00.523Z,96609.59
2023-04-18T22:02:27.962Z,96612.75
2023-04-18T22:04:55.159Z,96616.28
2023-04-18T22:07:24.678Z,96618.31
2023-04-18T22:09:51.887Z,96617.06
2023-04-18T22:12:19.038Z,96606.50
2023-04-18T22:14:48.463Z,96613.63
2023-04-18T22:17:15.974Z,96601.75
2023-04-18T22:19:44.616Z,96602.97
2023-04-18T22:22:12.273Z,96603.22
2023-04-18T22:24:39.563Z,96582.56
2023-04-18T22:27:07.006Z,96597.22
2023-04-18T22:29:34.032Z,96587.94
2023-04-18T22:32:00.997Z,96592.94
2023-04-18T22:34:28.073Z,96605.81
2023-04-18T22:36:55.087Z,96606.56
2023-04-18T22:39:22.046Z,96594.53
2023-04-18T22:41:49.044Z,96600.28
2023-04-18T22:44:16.265Z,96601.09
2023-04-18T22:46:43.586Z,96597.69
2023-04-18T22:49:10.898Z,96579.78
2023-04-18T22:51:38.265Z,96591.38
2023-04-18T22:54:05.502Z,96575.50
2023-04-18T22:56:32.529Z,96581.44
2023-04-18T22:58:59.437Z,96578.84
2023-04-18T23:01:26.353Z,96576.78
2023-04-18T23:03:53.683Z,96579.75
2023-04-18T23:06:21.074Z,96567.88
2023-04-18T23:08:48.047Z,96566.78
2023-04-18T23:11:15.878Z,96567.22
2023-04-18T23:13:42.872Z,96560.28
2023-04-18T23:16:09.800Z,96564.44
2023-04-18T23:18:36.788Z,96558.22
2023-04-18T23:21:03.969Z,96563.97
2023-04-18T23:23:30.971Z,96559.16
2023-04-18T23:25:58.078Z,96555.81
2023-04-18T23:28:25.349Z,96554.97
2023-04-18T23:30:52.698Z,96546.72
2023-04-18T23:33:19.598Z,96549.91
2023-04-18T23:35:46.602Z,96544.41
2023-04-18T23:38:13.514Z,96543.66
2023-04-18T23:40:40.502Z,96537.09
2023-04-18T23:43:07.379Z,96527.81
2023-04-18T23:45:34.353Z,96532.00
2023-04-18T23:48:01.434Z,96531.91
2023-04-18T23:50:28.523Z,96521.53
2023-04-18T23:52:55.587Z,96528.75
2023-04-18T23:55:22.542Z,96517.91
2023-04-18T23:57:49.600Z,96525.13
